Time;durP1;ratioP1;P1;durP2;ratioP2;P2;SDS_P1;SDS_P2;PMS_P1;PMS_P2;Temp;Humidity;BMP_temperature;BMP_pressure;BME280_temperature;BME280_humidity;BME280_pressure;Samples;Min_cycle;Max_cycle;Signal;HPM_P1;HPM_P2
2021/09/05 00:02:14;;;;;;;;;;;;;;;25.54;37.03;100885.03;4959728;29;832;-30
2021/09/05 00:04:39;;;;;;;;;;;;;;;25.15;37.64;100883.00;4959427;29;832;-29
2021/09/05 00:07:04;;;;;;;;;;;;;;;25.03;38.11;100883.34;4959581;29;824;-29
2021/09/05 00:09:30;;;;;;;;;;;;;;;25.43;37.85;100888.06;4959599;29;773;-29
2021/09/05 00:11:55;;;;;;;;;;;;;;;25.58;37.38;100882.84;4959507;29;1903;-29
2021/09/05 00:14:20;;;;;;;;;;;;;;;25.55;37.58;100875.97;4957894;29;1177;-29
2021/09/05 00:16:46;;;;;;;;;;;;;;;25.58;37.37;100876.63;4959485;29;1091;-29
2021/09/05 00:19:11;;;;;;;;;;;;;;;25.50;37.74;100875.63;4959455;29;869;-29
2021/09/05 00:21:36;;;;;;;;;;;;;;;25.62;37.26;100870.75;4959673;29;824;-28
2021/09/05 00:24:02;;;;;;;;;;;;;;;25.25;37.52;100878.31;4959300;29;804;-29
2021/09/05 00:26:31;;;;;;;;;;;;;;;25.25;37.58;100878.31;4959297;29;816;-29
2021/09/05 00:28:56;;;;;;;;;;;;;;;25.43;37.67;100872.75;4959101;28;1076;-29
2021/09/05 00:31:21;;;;;;;;;;;;;;;25.47;37.44;100875.13;4959251;29;1980;-29
2021/09/05 00:33:47;;;;;;;;;;;;;;;25.43;37.42;100875.47;4958876;29;749;-29
2021/09/05 00:36:12;;;;;;;;;;;;;;;24.83;37.71;100872.00;4959093;28;836;-29
2021/09/05 00:38:37;;;;;;;;;;;;;;;24.28;38.32;100874.13;4959239;29;792;-28
2021/09/05 00:41:03;;;;;;;;;;;;;;;24.24;38.72;100868.25;4959077;29;836;-29
2021/09/05 00:43:28;;;;;;;;;;;;;;;24.86;38.12;100871.66;4959120;29;1009;-29
2021/09/05 00:45:53;;;;;;;;;;;;;;;25.12;38.04;100870.75;4959213;28;848;-29
2021/09/05 00:48:19;;;;;;;;;;;;;;;25.09;38.10;100878.28;4958272;29;810;-28
2021/09/05 00:50:44;;;;;;;;;;;;;;;25.29;37.69;100873.44;4958992;28;1903;-29
2021/09/05 00:53:09;;;;;;;;;;;;;;;25.30;37.48;100875.13;4958763;28;792;-29
2021/09/05 00:55:37;;;;;;;;;;;;;;;24.92;38.19;100876.41;4958367;29;753;-28
2021/09/05 00:58:03;;;;;;;;;;;;;;;25.04;38.24;100866.16;4958860;28;774;-28
2021/09/05 01:00:28;;;;;;;;;;;;;;;25.07;38.39;100868.53;4940802;29;950;-29
2021/09/05 01:02:53;;;;;;;;;;;;;;;25.16;38.30;100873.91;4958456;29;864;-29
2021/09/05 01:05:19;;;;;;;;;;;;;;;25.06;38.21;100869.53;4941303;29;1051;-29
2021/09/05 01:07:44;;;;;;;;;;;;;;;25.23;38.44;100869.56;4958592;29;887;-29
2021/09/05 01:10:11;;;;;;;;;;;;;;;25.14;38.10;100873.25;4958265;29;1919;-29
2021/09/05 01:12:36;;;;;;;;;;;;;;;25.18;38.55;100879.97;4958450;29;769;-28
2021/09/05 01:15:02;;;;;;;;;;;;;;;25.09;39.10;100881.00;4958427;29;966;-29
2021/09/05 01:17:27;;;;;;;;;;;;;;;25.26;38.24;100887.22;4958225;29;1143;-29
2021/09/05 01:19:52;;;;;;;;;;;;;;;25.28;38.44;100887.91;4958414;29;733;-28
2021/09/05 01:22:18;;;;;;;;;;;;;;;25.20;38.62;100886.03;4958367;29;833;-29
2021/09/05 01:24:43;;;;;;;;;;;;;;;25.22;38.46;100881.34;4957646;29;892;-29
2021/09/05 01:27:08;;;;;;;;;;;;;;;25.17;38.52;100883.69;4958454;29;757;-29
2021/09/05 01:29:34;;;;;;;;;;;;;;;25.21;38.35;100885.03;4957882;29;1036;-29
2021/09/05 01:31:59;;;;;;;;;;;;;;;25.14;37.94;100881.34;4958346;29;1969;-29
2021/09/05 01:34:25;;;;;;;;;;;;;;;25.05;37.96;100888.56;4957997;29;847;-29
2021/09/05 01:36:51;;;;;;;;;;;;;;;24.43;37.70;100880.59;4958029;28;761;-29
2021/09/05 01:39:16;;;;;;;;;;;;;;;24.15;38.62;100883.47;4957728;29;768;-29
2021/09/05 01:41:41;;;;;;;;;;;;;;;24.26;38.45;100884.19;4958177;29;761;-29
2021/09/05 01:44:08;;;;;;;;;;;;;;;24.65;37.58;100888.25;4957865;29;1013;-28
2021/09/05 01:46:33;;;;;;;;;;;;;;;25.37;38.00;100884.22;4957688;29;887;-31
2021/09/05 01:48:59;;;;;;;;;;;;;;;25.80;37.61;100892.13;4958003;29;769;-31
2021/09/05 01:51:24;;;;;;;;;;;;;;;26.04;37.50;100886.88;4957533;29;1973;-32
2021/09/05 01:53:50;;;;;;;;;;;;;;;26.12;37.57;100886.00;4958067;29;872;-31
2021/09/05 01:56:15;;;;;;;;;;;;;;;26.26;37.49;100885.28;4958340;29;820;-31
2021/09/05 01:58:40;;;;;;;;;;;;;;;26.32;37.57;100888.28;4956925;28;969;-31
2021/09/05 02:01:06;;;;;;;;;;;;;;;26.40;37.76;100883.75;4957801;29;827;-31
2021/09/05 02:03:31;;;;;;;;;;;;;;;26.44;37.97;100886.94;4957726;29;824;-31
2021/09/05 02:05:56;;;;;;;;;;;;;;;26.53;38.19;100890.41;4957930;29;777;-31
2021/09/05 02:08:21;;;;;;;;;;;;;;;26.65;37.94;100890.88;4957721;29;745;-31
2021/09/05 02:10:47;;;;;;;;;;;;;;;26.65;38.25;100893.56;4957928;29;1977;-31
2021/09/05 02:13:12;;;;;;;;;;;;;;;26.62;38.35;100892.09;4957727;29;912;-31
2021/09/05 02:15:37;;;;;;;;;;;;;;;26.68;38.35;100895.06;4957437;29;954;-31
2021/09/05 02:18:03;;;;;;;;;;;;;;;26.87;38.16;100897.34;4957547;29;1780;-31
2021/09/05 02:20:28;;;;;;;;;;;;;;;26.94;38.62;100893.94;4957637;28;824;-31
2021/09/05 02:22:53;;;;;;;;;;;;;;;26.87;38.69;100897.34;4957504;29;851;-31
2021/09/05 02:25:18;;;;;;;;;;;;;;;26.93;38.80;100897.63;4957690;29;856;-31
2021/09/05 02:27:44;;;;;;;;;;;;;;;26.96;38.59;100897.28;4957786;29;820;-31
2021/09/05 02:30:10;;;;;;;;;;;;;;;27.06;38.76;100895.22;4956764;29;1906;-31
2021/09/05 02:32:35;;;;;;;;;;;;;;;27.04;38.53;100897.28;4957628;29;784;-31
2021/09/05 02:35:01;;;;;;;;;;;;;;;27.07;38.63;100890.66;4957706;29;753;-31
2021/09/05 02:37:26;;;;;;;;;;;;;;;27.07;38.62;100896.06;4957402;29;766;-31
2021/09/05 02:39:51;;;;;;;;;;;;;;;27.06;38.55;100889.81;4957773;29;840;-31
2021/09/05 02:42:17;;;;;;;;;;;;;;;27.03;39.05;100895.56;4957352;29;896;-31
2021/09/05 02:44:42;;;;;;;;;;;;;;;27.07;39.08;100893.38;4957123;29;1013;-31
2021/09/05 02:47:07;;;;;;;;;;;;;;;27.14;38.97;100894.34;4957560;29;860;-31
2021/09/05 02:49:33;;;;;;;;;;;;;;;27.14;39.19;100892.47;4940232;29;1230;-31
2021/09/05 02:51:58;;;;;;;;;;;;;;;27.16;39.05;100894.16;4957490;28;1968;-31
2021/09/05 02:54:23;;;;;;;;;;;;;;;27.16;39.04;100894.97;4957005;29;1005;-31
2021/09/05 02:56:49;;;;;;;;;;;;;;;27.14;39.21;100897.84;4957199;29;788;-31
2021/09/05 02:59:16;;;;;;;;;;;;;;;27.14;39.56;100899.75;4957314;29;954;-31
2021/09/05 03:01:41;;;;;;;;;;;;;;;27.20;39.53;100900.84;4956983;28;823;-31
2021/09/05 03:04:06;;;;;;;;;;;;;;;27.22;39.39;100901.53;4957864;28;753;-31
2021/09/05 03:06:31;;;;;;;;;;;;;;;27.25;39.52;100899.31;4957853;29;832;-31
2021/09/05 03:08:57;;;;;;;;;;;;;;;27.30;39.48;100901.47;4956733;28;799;-31
2021/09/05 03:11:22;;;;;;;;;;;;;;;27.30;39.55;100901.47;4960518;28;1965;-31
2021/09/05 03:13:48;;;;;;;;;;;;;;;27.44;38.86;100907.94;4960642;29;962;-31
2021/09/05 03:16:14;;;;;;;;;;;;;;;27.29;39.55;100907.06;4960028;28;1141;-31
2021/09/05 03:18:39;;;;;;;;;;;;;;;27.32;39.43;100904.00;4960954;29;796;-31
2021/09/05 03:21:04;;;;;;;;;;;;;;;27.36;39.38;100900.75;4960611;29;836;-31
2021/09/05 03:23:30;;;;;;;;;;;;;;;27.46;39.30;100908.59;4960306;29;884;-31
2021/09/05 03:25:55;;;;;;;;;;;;;;;27.57;39.00;100904.63;4960828;29;768;-30
2021/09/05 03:28:20;;;;;;;;;;;;;;;27.43;39.24;100917.06;4960800;28;986;-31
2021/09/05 03:30:46;;;;;;;;;;;;;;;27.56;38.83;100910.22;4959952;29;1918;-31
2021/09/05 03:33:11;;;;;;;;;;;;;;;27.65;39.08;100913.66;4960401;29;809;-31
2021/09/05 03:35:36;;;;;;;;;;;;;;;27.39;37.12;100915.75;4960164;29;922;-30
2021/09/05 03:38:02;;;;;;;;;;;;;;;26.62;35.79;100924.47;4960189;29;769;-29
2021/09/05 03:40:27;;;;;;;;;;;;;;;26.26;35.90;100922.16;4960411;29;789;-29
2021/09/05 03:42:52;;;;;;;;;;;;;;;25.65;36.62;100923.47;4960549;29;792;-29
2021/09/05 03:45:18;;;;;;;;;;;;;;;25.44;37.25;100922.91;4959872;29;974;-29
2021/09/05 03:47:43;;;;;;;;;;;;;;;25.41;37.86;100930.47;4960209;29;749;-30
2021/09/05 03:50:08;;;;;;;;;;;;;;;23.99;37.95;100927.19;4960403;29;1910;-29
2021/09/05 03:52:34;;;;;;;;;;;;;;;24.13;39.36;100936.53;4959659;29;774;-29
2021/09/05 03:54:59;;;;;;;;;;;;;;;25.17;38.10;100932.16;4959502;29;978;-30
2021/09/05 03:57:25;;;;;;;;;;;;;;;25.94;36.26;100937.41;4960000;29;772;-29
2021/09/05 03:59:50;;;;;;;;;;;;;;;26.16;35.59;100938.53;4958581;29;1332;-30
2021/09/05 04:02:15;;;;;;;;;;;;;;;25.68;37.31;100942.81;4959560;29;813;-30
2021/09/05 04:04:41;;;;;;;;;;;;;;;25.74;36.57;100937.78;4960136;29;777;-29
2021/09/05 04:07:09;;;;;;;;;;;;;;;26.02;36.45;100942.81;4959729;29;780;-30
2021/09/05 04:12:18;;;;;;;;;;;;;;;26.55;35.47;100946.91;4959131;29;623;-29
2021/09/05 04:14:43;;;;;;;;;;;;;;;26.64;35.44;100940.47;4959449;29;949;-29
2021/09/05 04:17:09;;;;;;;;;;;;;;;26.73;35.44;100939.41;4959531;29;1177;-30
2021/09/05 04:19:34;;;;;;;;;;;;;;;26.87;35.82;100945.09;4959797;29;781;-30
2021/09/05 04:22:00;;;;;;;;;;;;;;;26.90;36.40;100952.81;4958458;28;844;-30
2021/09/05 04:24:25;;;;;;;;;;;;;;;26.98;36.52;100957.31;4959217;29;876;-30
2021/09/05 04:26:50;;;;;;;;;;;;;;;27.01;36.86;100955.16;4959893;29;848;-30
2021/09/05 04:29:16;;;;;;;;;;;;;;;27.05;37.00;100954.78;4959074;29;1025;-30
2021/09/05 04:31:41;;;;;;;;;;;;;;;27.12;37.60;100956.63;4959424;29;1918;-30
2021/09/05 04:34:06;;;;;;;;;;;;;;;27.09;37.94;100959.66;4959505;29;785;-30
2021/09/05 04:36:31;;;;;;;;;;;;;;;27.23;37.95;100966.16;4959122;29;944;-30
2021/09/05 04:38:57;;;;;;;;;;;;;;;27.21;38.13;100964.69;4959043;29;804;-30
2021/09/05 04:41:22;;;;;;;;;;;;;;;27.20;38.57;100965.66;4959337;29;773;-30
2021/09/05 04:43:47;;;;;;;;;;;;;;;27.23;38.81;100968.00;4957465;29;1087;-30
2021/09/05 04:46:13;;;;;;;;;;;;;;;27.30;39.00;100976.25;4959019;29;776;-30
2021/09/05 04:48:40;;;;;;;;;;;;;;;27.27;39.20;100977.47;4959186;29;772;-30
2021/09/05 04:51:05;;;;;;;;;;;;;;;27.32;39.15;100972.38;4958296;29;1961;-30
2021/09/05 04:53:31;;;;;;;;;;;;;;;27.44;39.25;100975.50;4958876;29;753;-31
2021/09/05 04:55:58;;;;;;;;;;;;;;;27.46;39.30;100981.53;4958908;29;761;-30
2021/09/05 04:58:23;;;;;;;;;;;;;;;27.37;39.58;100978.06;4958306;29;998;-31
2021/09/05 05:00:49;;;;;;;;;;;;;;;27.43;39.50;100981.06;4958383;29;866;-31
2021/09/05 05:03:15;;;;;;;;;;;;;;;27.50;39.55;100979.31;4958356;29;777;-30
2021/09/05 05:05:41;;;;;;;;;;;;;;;27.50;39.58;100990.13;4958421;29;793;-30
2021/09/05 05:08:06;;;;;;;;;;;;;;;27.45;39.65;100979.88;4959118;29;852;-30
2021/09/05 05:10:31;;;;;;;;;;;;;;;27.50;39.03;100985.56;4958731;29;1962;-30
2021/09/05 05:12:57;;;;;;;;;;;;;;;27.54;39.31;100982.50;4958014;29;741;-30
2021/09/05 05:15:22;;;;;;;;;;;;;;;27.57;38.82;100983.00;4953936;29;1044;-29
2021/09/05 05:17:48;;;;;;;;;;;;;;;27.51;39.22;100989.09;4947430;29;989;-30
2021/09/05 05:20:13;;;;;;;;;;;;;;;27.49;39.57;101000.09;4958159;29;761;-30
2021/09/05 05:22:39;;;;;;;;;;;;;;;27.57;39.75;100993.81;4958084;29;800;-30
2021/09/05 05:25:05;;;;;;;;;;;;;;;27.58;39.18;100990.06;4958636;29;749;-30
2021/09/05 05:27:30;;;;;;;;;;;;;;;27.59;39.17;100989.03;4958092;29;705;-30
2021/09/05 05:29:56;;;;;;;;;;;;;;;27.58;39.36;100989.22;4958243;29;1981;-30
2021/09/05 05:32:21;;;;;;;;;;;;;;;27.71;39.28;100999.47;4957414;28;900;-30
2021/09/05 05:34:47;;;;;;;;;;;;;;;27.68;39.56;101000.66;4957400;29;784;-30
2021/09/05 05:37:12;;;;;;;;;;;;;;;27.67;39.71;100996.25;4958105;29;773;-30
2021/09/05 05:39:37;;;;;;;;;;;;;;;27.67;39.07;100998.13;4958058;29;797;-30
2021/09/05 05:42:03;;;;;;;;;;;;;;;27.61;39.53;100997.00;4958029;29;765;-30
2021/09/05 05:44:28;;;;;;;;;;;;;;;27.71;39.50;101003.00;4953075;29;1220;-31
2021/09/05 05:46:53;;;;;;;;;;;;;;;27.71;39.53;101003.00;4939124;29;776;-30
2021/09/05 05:49:19;;;;;;;;;;;;;;;27.70;39.80;101001.34;4939043;29;852;-30
2021/09/05 05:51:44;;;;;;;;;;;;;;;27.81;39.77;101007.34;4938477;29;1903;-30
2021/09/05 05:54:10;;;;;;;;;;;;;;;27.80;39.97;101008.34;4938657;29;749;-30
2021/09/05 05:56:35;;;;;;;;;;;;;;;27.86;40.28;101005.75;4938719;29;829;-30
2021/09/05 05:59:01;;;;;;;;;;;;;;;27.87;40.07;101012.00;4944285;29;990;-30
2021/09/05 06:01:26;;;;;;;;;;;;;;;27.89;39.99;101007.28;4958013;28;755;-30
2021/09/05 06:03:51;;;;;;;;;;;;;;;27.90;40.10;101008.94;4957786;29;765;-30
2021/09/05 06:06:17;;;;;;;;;;;;;;;27.97;40.34;101009.06;4957094;29;880;-29
2021/09/05 06:08:42;;;;;;;;;;;;;;;28.06;39.86;101015.25;4954342;29;1336;-30
2021/09/05 06:11:08;;;;;;;;;;;;;;;28.12;40.06;101006.38;4957102;29;1906;-30
2021/09/05 06:13:33;;;;;;;;;;;;;;;28.11;40.31;101019.06;4957098;29;862;-30
2021/09/05 06:15:58;;;;;;;;;;;;;;;28.19;40.10;101018.16;4958240;29;797;-31
2021/09/05 06:18:24;;;;;;;;;;;;;;;28.23;39.94;101022.16;4957606;29;1332;-30
2021/09/05 06:20:49;;;;;;;;;;;;;;;28.24;39.84;101021.13;4957236;29;817;-30
2021/09/05 06:23:14;;;;;;;;;;;;;;;28.21;40.02;101018.78;4957227;28;793;-30
2021/09/05 06:25:40;;;;;;;;;;;;;;;28.23;40.04;101019.47;4954784;29;761;-30
2021/09/05 06:28:05;;;;;;;;;;;;;;;28.19;39.81;101026.28;4956778;29;808;-31
2021/09/05 06:30:30;;;;;;;;;;;;;;;28.20;39.69;101024.38;4956570;29;1973;-31
2021/09/05 06:32:56;;;;;;;;;;;;;;;28.22;39.97;101028.59;4957011;29;765;-31
2021/09/05 06:35:22;;;;;;;;;;;;;;;28.17;39.67;101020.19;4942485;29;829;-30
2021/09/05 06:37:48;;;;;;;;;;;;;;;28.24;39.61;101031.94;4957517;29;840;-30
2021/09/05 06:40:13;;;;;;;;;;;;;;;28.17;39.60;101033.72;4957488;29;765;-30
2021/09/05 06:42:38;;;;;;;;;;;;;;;28.28;39.06;101028.91;4957138;29;792;-31
2021/09/05 06:45:04;;;;;;;;;;;;;;;28.22;38.85;101023.19;4958184;28;957;-31
2021/09/05 06:47:29;;;;;;;;;;;;;;;28.17;39.42;101022.06;4960845;29;844;-30
2021/09/05 06:49:55;;;;;;;;;;;;;;;28.31;38.88;101023.13;4960967;29;1910;-30
2021/09/05 06:52:20;;;;;;;;;;;;;;;28.22;39.24;101025.06;4961178;28;792;-30
2021/09/05 06:54:45;;;;;;;;;;;;;;;28.23;39.14;101026.72;4961016;28;745;-30
2021/09/05 06:57:10;;;;;;;;;;;;;;;28.28;38.95;101023.50;4960887;29;959;-31
2021/09/05 06:59:36;;;;;;;;;;;;;;;28.32;38.59;101022.06;4960609;29;950;-30
2021/09/05 07:02:01;;;;;;;;;;;;;;;28.31;38.59;101023.94;4960151;29;1263;-30
2021/09/05 07:04:26;;;;;;;;;;;;;;;28.37;38.02;101025.09;4960207;29;1362;-30
2021/09/05 07:06:52;;;;;;;;;;;;;;;28.33;37.65;101021.94;4960537;29;1417;-30
2021/09/05 07:09:17;;;;;;;;;;;;;;;28.36;37.68;101023.44;4960961;29;796;-30
2021/09/05 07:11:42;;;;;;;;;;;;;;;28.43;37.05;101026.22;4959756;29;1961;-31
2021/09/05 07:14:08;;;;;;;;;;;;;;;28.44;36.67;101026.06;4960201;29;910;-31
2021/09/05 07:16:33;;;;;;;;;;;;;;;28.48;36.37;101031.91;4959966;29;1274;-31
2021/09/05 07:18:58;;;;;;;;;;;;;;;28.48;36.93;101031.91;4960677;29;765;-31
2021/09/05 07:21:23;;;;;;;;;;;;;;;28.44;36.21;101034.19;4960581;29;801;-31
2021/09/05 07:23:49;;;;;;;;;;;;;;;28.54;36.63;101035.75;4960804;29;749;-30
2021/09/05 07:26:14;;;;;;;;;;;;;;;28.59;36.38;101036.03;4959918;29;769;-31
2021/09/05 07:28:40;;;;;;;;;;;;;;;28.54;36.26;101033.06;4960044;29;874;-31
2021/09/05 07:31:06;;;;;;;;;;;;;;;28.57;35.92;101038.94;4960237;29;1910;-30
2021/09/05 07:33:32;;;;;;;;;;;;;;;28.63;35.43;101044.63;4959929;29;887;-30
2021/09/05 07:35:57;;;;;;;;;;;;;;;28.58;35.44;101048.72;4960679;29;749;-31
2021/09/05 07:38:22;;;;;;;;;;;;;;;28.62;34.89;101038.38;4960212;29;808;-31
2021/09/05 07:40:48;;;;;;;;;;;;;;;28.69;35.54;101042.03;4959842;29;789;-31
2021/09/05 07:43:13;;;;;;;;;;;;;;;28.70;35.22;101041.00;4960255;29;782;-30
2021/09/05 07:45:38;;;;;;;;;;;;;;;28.71;35.60;101039.94;4960034;29;946;-31
2021/09/05 07:48:04;;;;;;;;;;;;;;;28.76;35.47;101050.22;4960087;29;753;-30
2021/09/05 07:50:29;;;;;;;;;;;;;;;28.76;35.06;101043.97;4960159;29;1906;-30
2021/09/05 07:52:55;;;;;;;;;;;;;;;28.77;35.00;101053.75;4959616;29;678;-30
2021/09/05 07:55:20;;;;;;;;;;;;;;;28.80;35.06;101056.09;4959871;29;856;-31
2021/09/05 07:57:45;;;;;;;;;;;;;;;28.79;34.85;101049.88;4959018;28;816;-31
2021/09/05 08:00:11;;;;;;;;;;;;;;;28.78;35.05;101050.88;4959879;29;942;-30
2021/09/05 08:02:36;;;;;;;;;;;;;;;28.76;34.56;101055.63;4959588;29;805;-30
2021/09/05 08:05:01;;;;;;;;;;;;;;;28.84;34.83;101052.00;4959239;29;793;-29
2021/09/05 08:07:27;;;;;;;;;;;;;;;28.73;35.17;101048.72;4959856;29;741;-30
2021/09/05 08:09:52;;;;;;;;;;;;;;;28.69;35.19;101047.44;4959870;29;824;-30
2021/09/05 08:12:17;;;;;;;;;;;;;;;28.60;34.67;101053.94;4959343;29;1902;-29
2021/09/05 08:14:42;;;;;;;;;;;;;;;28.69;33.79;101057.41;4959379;29;946;-29
2021/09/05 08:17:08;;;;;;;;;;;;;;;28.76;34.47;101052.91;4959686;29;1063;-30
2021/09/05 08:19:33;;;;;;;;;;;;;;;28.80;33.58;101058.81;4959418;29;848;-30
2021/09/05 08:21:59;;;;;;;;;;;;;;;28.76;32.12;101060.22;4959597;29;796;-30
2021/09/05 08:24:24;;;;;;;;;;;;;;;28.84;33.39;101052.81;4959502;29;746;-30
2021/09/05 08:26:49;;;;;;;;;;;;;;;28.81;33.25;101052.38;4959260;29;840;-30
2021/09/05 08:29:14;;;;;;;;;;;;;;;28.91;31.77;101057.50;4959034;29;1152;-30
2021/09/05 08:31:40;;;;;;;;;;;;;;;29.02;30.69;101057.06;4959702;29;1973;-30
2021/09/05 08:34:06;;;;;;;;;;;;;;;29.09;31.47;101057.97;4959404;29;915;-30
2021/09/05 08:36:31;;;;;;;;;;;;;;;29.00;31.88;101044.72;4959314;28;824;-31
2021/09/05 08:38:57;;;;;;;;;;;;;;;29.16;31.91;101047.22;4959551;29;737;-30
2021/09/05 08:41:25;;;;;;;;;;;;;;;29.24;30.64;101048.13;4958825;29;494;-30
2021/09/05 08:43:50;;;;;;;;;;;;;;;29.07;30.75;101040.25;4958890;29;977;-30
2021/09/05 08:46:16;;;;;;;;;;;;;;;29.07;32.02;101040.25;4959208;29;843;-30
2021/09/05 08:48:42;;;;;;;;;;;;;;;29.08;32.43;101042.75;4941989;29;805;-30
2021/09/05 08:51:07;;;;;;;;;;;;;;;22.96;44.12;101023.16;4941698;29;1965;-31
2021/09/05 08:53:32;;;;;;;;;;;;;;;18.69;50.52;101024.75;4959351;29;816;-30
2021/09/05 08:55:57;;;;;;;;;;;;;;;17.91;53.41;101023.44;4958563;29;777;-30
2021/09/05 08:58:23;;;;;;;;;;;;;;;18.80;56.56;101021.25;4958997;29;958;-30
2021/09/05 09:00:48;;;;;;;;;;;;;;;19.05;57.67;101019.31;4958997;29;765;-31
2021/09/05 09:03:18;;;;;;;;;;;;;;;18.96;58.92;101023.56;4958414;29;738;-32
2021/09/05 09:05:45;;;;;;;;;;;;;;;19.00;59.36;101026.84;4958441;28;808;-29
2021/09/05 09:08:11;;;;;;;;;;;;;;;18.89;59.77;101027.66;4958176;28;828;-33
2021/09/05 09:10:45;;;;;;;;;;;;;;;18.85;60.12;101025.25;4958238;29;1906;-33
2021/09/05 09:13:21;;;;;;;;;;;;;;;18.78;60.74;101020.53;4958755;29;789;-32
2021/09/05 09:15:47;;;;;;;;;;;;;;;18.70;61.09;101016.63;4958429;29;852;-32
2021/09/05 09:18:12;;;;;;;;;;;;;;;19.28;61.82;101022.84;4958156;29;1155;-32
2021/09/05 09:20:37;;;;;;;;;;;;;;;22.81;49.37;101034.38;4958548;29;888;-33
2021/09/05 09:23:06;;;;;;;;;;;;;;;19.57;56.75;101030.31;4958206;29;816;-31
2021/09/05 09:25:32;;;;;;;;;;;;;;;18.21;60.73;101014.13;4941103;29;1353;-31
2021/09/05 09:27:57;;;;;;;;;;;;;;;17.89;62.07;101019.16;4958356;29;756;-32
2021/09/05 09:30:22;;;;;;;;;;;;;;;19.24;62.90;101016.06;4958168;29;1906;-32
2021/09/05 09:32:48;;;;;;;;;;;;;;;22.73;48.67;101016.34;4957669;29;797;-31
2021/09/05 09:35:13;;;;;;;;;;;;;;;19.30;58.02;101009.38;4957578;29;833;-31
2021/09/05 09:37:39;;;;;;;;;;;;;;;18.57;60.92;101014.09;4958137;29;809;-31
2021/09/05 09:40:05;;;;;;;;;;;;;;;18.32;62.04;101020.44;4949742;29;1316;-31
2021/09/05 09:42:30;;;;;;;;;;;;;;;18.24;62.47;101013.03;4937617;29;1364;-32
2021/09/05 09:44:56;;;;;;;;;;;;;;;18.15;62.79;101011.09;4951680;29;966;-31
2021/09/05 09:47:21;;;;;;;;;;;;;;;19.03;62.29;101007.94;4957420;29;809;-31
2021/09/05 09:49:48;;;;;;;;;;;;;;;22.33;50.33;101018.25;4958148;29;785;-32
2021/09/05 09:52:13;;;;;;;;;;;;;;;19.21;58.40;101011.81;4957775;29;1899;-31
2021/09/05 09:54:39;;;;;;;;;;;;;;;18.35;61.68;101007.75;4940285;29;821;-32
2021/09/05 09:57:04;;;;;;;;;;;;;;;18.21;62.38;101011.47;4940677;29;863;-31
2021/09/05 09:59:29;;;;;;;;;;;;;;;19.81;59.26;100999.03;4940116;29;950;-32
2021/09/05 10:02:00;;;;;;;;;;;;;;;22.76;48.95;101004.47;4957421;29;798;-32
2021/09/05 10:04:32;;;;;;;;;;;;;;;18.81;59.61;100998.97;4956788;29;805;-31
2021/09/05 10:06:58;;;;;;;;;;;;;;;18.20;61.97;101009.75;4957824;29;821;-31
2021/09/05 10:09:23;;;;;;;;;;;;;;;17.98;62.91;101011.34;4956058;29;1377;-31
2021/09/05 10:11:50;;;;;;;;;;;;;;;21.25;53.71;101013.69;4956643;29;1971;-31
2021/09/05 10:14:15;;;;;;;;;;;;;;;19.83;55.44;101002.44;4957143;29;938;-32
2021/09/05 10:16:43;;;;;;;;;;;;;;;18.43;60.97;101009.84;4939988;29;1163;-31
2021/09/05 10:19:09;;;;;;;;;;;;;;;18.14;62.54;101014.69;4959305;28;807;-31
2021/09/05 10:21:36;;;;;;;;;;;;;;;21.44;53.22;101010.19;4946572;29;847;-31
2021/09/05 10:24:07;;;;;;;;;;;;;;;19.91;55.50;101005.31;4947040;29;882;-31
2021/09/05 10:26:39;;;;;;;;;;;;;;;18.52;60.94;100994.09;4946493;28;1245;-31
2021/09/05 10:29:12;;;;;;;;;;;;;;;18.07;63.11;101003.63;4946456;28;1277;-31
2021/09/05 10:31:38;;;;;;;;;;;;;;;20.84;55.58;101001.13;4963534;28;1964;-31
2021/09/05 10:34:03;;;;;;;;;;;;;;;20.37;52.61;100998.94;4963896;29;772;-31
2021/09/05 10:36:29;;;;;;;;;;;;;;;18.56;60.63;100993.75;4964160;28;761;-31
2021/09/05 10:39:05;;;;;;;;;;;;;;;18.11;62.71;100992.66;4945623;29;1499;-31
2021/09/05 10:41:30;;;;;;;;;;;;;;;19.37;60.69;100994.56;4963603;29;797;-30
2021/09/05 10:43:58;;;;;;;;;;;;;;;22.45;49.79;100996.66;4963468;29;946;-31
2021/09/05 10:46:25;;;;;;;;;;;;;;;19.02;58.92;100992.91;4963742;29;805;-31
2021/09/05 10:49:02;;;;;;;;;;;;;;;18.22;62.37;100989.19;4962802;29;832;-30
2021/09/05 10:51:31;;;;;;;;;;;;;;;19.02;62.01;100990.25;4963404;29;1898;-30
2021/09/05 10:54:06;;;;;;;;;;;;;;;22.32;50.47;100986.25;4963582;28;792;-30
2021/09/05 10:56:41;;;;;;;;;;;;;;;19.20;59.40;100990.63;4962715;29;1375;-31
2021/09/05 10:59:14;;;;;;;;;;;;;;;18.62;62.96;100999.56;4963368;28;947;-30
2021/09/05 11:01:49;;;;;;;;;;;;;;;18.48;64.41;101015.63;4963548;29;804;-30
2021/09/05 11:04:14;;;;;;;;;;;;;;;18.35;65.13;101005.06;4963865;28;808;-30
2021/09/05 11:06:46;;;;;;;;;;;;;;;19.19;64.72;101011.09;4963961;29;729;-30
2021/09/05 11:09:17;;;;;;;;;;;;;;;22.35;53.15;101012.75;4963137;28;781;-30
2021/09/05 11:12:15;;;;;;;;;;;;;;;18.85;62.68;101001.25;4963670;29;1961;-30
2021/09/05 11:14:45;;;;;;;;;;;;;;;18.05;66.37;101006.41;4940896;29;1188;-30
2021/09/05 11:17:11;;;;;;;;;;;;;;;19.56;65.78;101001.06;4962790;29;1051;-30
2021/09/05 11:19:36;;;;;;;;;;;;;;;22.50;53.75;101003.25;4963627;29;729;-30
2021/09/05 11:22:07;;;;;;;;;;;;;;;18.77;64.19;101006.34;4963560;28;772;-30
2021/09/05 11:24:33;;;;;;;;;;;;;;;18.21;66.47;101013.28;4963286;29;816;-30
2021/09/05 11:26:58;;;;;;;;;;;;;;;19.40;67.18;101013.00;4963938;29;803;-30
2021/09/05 11:29:24;;;;;;;;;;;;;;;22.41;54.02;101022.03;4963258;28;966;-31
2021/09/05 11:31:49;;;;;;;;;;;;;;;18.84;64.58;101014.72;4960702;28;1997;-30
2021/09/05 11:34:15;;;;;;;;;;;;;;;18.27;67.07;101014.63;4960653;29;769;-30
2021/09/05 11:36:43;;;;;;;;;;;;;;;21.62;58.01;101015.72;4960385;29;785;-30
2021/09/05 11:39:08;;;;;;;;;;;;;;;19.47;63.68;101017.84;4959994;29;761;-29
2021/09/05 11:41:34;;;;;;;;;;;;;;;18.53;66.79;101019.78;4960470;28;745;-30
2021/09/05 11:43:59;;;;;;;;;;;;;;;19.55;68.56;101015.41;4959467;29;958;-30
2021/09/05 11:46:24;;;;;;;;;;;;;;;22.58;55.54;101020.44;4960107;29;864;-30
2021/09/05 11:48:56;;;;;;;;;;;;;;;19.15;65.47;101020.28;4959926;29;867;-30
2021/09/05 11:51:21;;;;;;;;;;;;;;;18.56;68.05;101017.72;4960031;29;1969;-31
2021/09/05 11:53:59;;;;;;;;;;;;;;;20.91;63.09;101023.69;4959734;29;832;-33
2021/09/05 11:56:24;;;;;;;;;;;;;;;20.16;61.07;101022.00;4960040;29;761;-31
2021/09/05 11:58:50;;;;;;;;;;;;;;;18.71;66.33;101018.34;4959231;29;1017;-31
2021/09/05 12:01:15;;;;;;;;;;;;;;;19.75;67.90;101012.91;4942589;29;777;-31
2021/09/05 12:03:40;;;;;;;;;;;;;;;22.71;55.65;101012.09;4960274;29;809;-30
2021/09/05 12:06:09;;;;;;;;;;;;;;;19.14;65.99;101007.94;4960194;29;852;-30
2021/09/05 12:08:35;;;;;;;;;;;;;;;18.69;67.59;101009.63;4959309;29;809;-30
2021/09/05 12:11:01;;;;;;;;;;;;;;;21.92;58.87;101013.06;4942577;29;1954;-31
2021/09/05 12:13:26;;;;;;;;;;;;;;;19.68;63.17;100999.22;4959500;29;946;-30
2021/09/05 12:15:52;;;;;;;;;;;;;;;18.75;66.08;101007.44;4959587;29;805;-31
2021/09/05 12:18:17;;;;;;;;;;;;;;;18.49;67.21;101008.50;4959503;29;1070;-30
2021/09/05 12:20:43;;;;;;;;;;;;;;;19.18;69.03;101006.75;4959304;29;847;-31
2021/09/05 12:23:32;;;;;;;;;;;;;;;22.34;56.13;101025.31;4959012;29;851;-31
2021/09/05 12:26:01;;;;;;;;;;;;;;;18.92;65.03;101020.28;4953847;29;1892;-31
2021/09/05 12:28:30;;;;;;;;;;;;;;;18.39;66.74;101018.16;4959475;28;1033;-30
2021/09/05 12:30:55;;;;;;;;;;;;;;;20.13;64.94;101019.56;4958892;29;1902;-30
2021/09/05 12:33:27;;;;;;;;;;;;;;;22.80;54.20;101023.81;4959063;29;824;-31
2021/09/05 12:35:53;;;;;;;;;;;;;;;18.66;65.14;101017.84;4959213;29;884;-31
2021/09/05 12:38:22;;;;;;;;;;;;;;;19.32;66.90;101010.94;4959372;29;836;-30
2021/09/05 12:40:48;;;;;;;;;;;;;;;22.50;54.20;101013.16;4941724;29;1168;-31
2021/09/05 12:43:13;;;;;;;;;;;;;;;19.01;62.81;101016.06;4958768;28;754;-30
2021/09/05 12:45:50;;;;;;;;;;;;;;;22.09;55.05;101021.38;4958826;29;1001;-30
2021/09/05 12:48:16;;;;;;;;;;;;;;;19.37;60.71;101020.41;4959130;29;805;-30
2021/09/05 12:50:41;;;;;;;;;;;;;;;20.58;60.13;101016.75;4959005;29;1902;-29
2021/09/05 12:53:10;;;;;;;;;;;;;;;23.12;50.82;101020.69;4958798;29;805;-30